sensor_id;sensor_type;location;lat;lon;timestamp;temperature;humidity
13794;DHT22;31160;49.500;7.772;2023-05-19T00:01:12;9.70;99.90
13794;DHT22;31160;49.500;7.772;2023-05-19T00:03:51;9.70;99.90
13794;DHT22;31160;49.500;7.772;2023-05-19T00:06:23;9.50;99.90
13794;DHT22;31160;49.500;7.772;2023-05-19T00:08:57;9.30;99.90
13794;DHT22;31160;49.500;7.772;2023-05-19T00:11:25;9.20;99.90
13794;DHT22;31160;49.500;7.772;2023-05-19T00:13:56;9.30;99.90
13794;DHT22;31160;49.500;7.772;2023-05-19T00:16:25;9.30;99.90
13794;DHT22;31160;49.500;7.772;2023-05-19T00:18:53;9.10;99.90
13794;DHT22;31160;49.500;7.772;2023-05-19T00:21:19;9.00;99.90
13794;DHT22;31160;49.500;7.772;2023-05-19T00:23:46;8.90;99.90
13794;DHT22;31160;49.500;7.772;2023-05-19T00:26:13;8.90;99.90
13794;DHT22;31160;49.500;7.772;2023-05-19T00:28:50;8.80;99.90
13794;DHT22;31160;49.500;7.772;2023-05-19T00:31:16;8.50;99.90
13794;DHT22;31160;49.500;7.772;2023-05-19T00:33:43;8.40;99.90
13794;DHT22;31160;49.500;7.772;2023-05-19T00:36:10;8.30;99.90
13794;DHT22;31160;49.500;7.772;2023-05-19T00:38:38;8.30;99.90
13794;DHT22;31160;49.500;7.772;2023-05-19T00:41:05;8.30;99.90
13794;DHT22;31160;49.500;7.772;2023-05-19T00:43:33;8.30;99.90
13794;DHT22;31160;49.500;7.772;2023-05-19T00:46:02;8.30;99.90
13794;DHT22;31160;49.500;7.772;2023-05-19T00:48:29;8.30;99.90
13794;DHT22;31160;49.500;7.772;2023-05-19T00:50:57;8.20;99.90
13794;DHT22;31160;49.500;7.772;2023-05-19T00:53:31;8.20;99.90
13794;DHT22;31160;49.500;7.772;2023-05-19T00:55:59;8.20;99.90
13794;DHT22;31160;49.500;7.772;2023-05-19T00:58:26;8.20;99.90
13794;DHT22;31160;49.500;7.772;2023-05-19T01:00:59;8.00;99.90
13794;DHT22;31160;49.500;7.772;2023-05-19T01:03:30;8.00;99.90
13794;DHT22;31160;49.500;7.772;2023-05-19T01:05:57;8.00;99.90
13794;DHT22;31160;49.500;7.772;2023-05-19T01:08:27;8.00;99.90
13794;DHT22;31160;49.500;7.772;2023-05-19T01:10:54;8.00;99.90
13794;DHT22;31160;49.500;7.772;2023-05-19T01:13:21;8.00;99.90
13794;DHT22;31160;49.500;7.772;2023-05-19T01:16:06;7.80;99.90
13794;DHT22;31160;49.500;7.772;2023-05-19T01:22:05;7.80;99.90
13794;DHT22;31160;49.500;7.772;2023-05-19T01:30:42;7.80;99.90
13794;DHT22;31160;49.500;7.772;2023-05-19T01:33:12;7.80;99.90
13794;DHT22;31160;49.500;7.772;2023-05-19T01:35:43;7.80;99.90
13794;DHT22;31160;49.500;7.772;2023-05-19T01:38:12;7.70;99.90
13794;DHT22;31160;49.500;7.772;2023-05-19T01:40:43;7.70;99.90
13794;DHT22;31160;49.500;7.772;2023-05-19T01:43:17;7.70;99.90
13794;DHT22;31160;49.500;7.772;2023-05-19T01:45:45;7.60;99.90
13794;DHT22;31160;49.500;7.772;2023-05-19T01:48:13;7.70;99.90
13794;DHT22;31160;49.500;7.772;2023-05-19T01:50:40;7.60;99.90
13794;DHT22;31160;49.500;7.772;2023-05-19T01:53:08;7.40;99.90
13794;DHT22;31160;49.500;7.772;2023-05-19T01:55:45;7.40;99.90
13794;DHT22;31160;49.500;7.772;2023-05-19T01:58:21;7.40;99.90
13794;DHT22;31160;49.500;7.772;2023-05-19T02:00:51;7.40;99.90
13794;DHT22;31160;49.500;7.772;2023-05-19T02:03:36;7.30;99.90
13794;DHT22;31160;49.500;7.772;2023-05-19T02:09:06;7.20;99.90
13794;DHT22;31160;49.500;7.772;2023-05-19T02:11:46;7.10;99.90
13794;DHT22;31160;49.500;7.772;2023-05-19T02:16:47;7.10;99.90
13794;DHT22;31160;49.500;7.772;2023-05-19T02:19:25;7.10;99.90
13794;DHT22;31160;49.500;7.772;2023-05-19T02:21:54;7.10;99.90
13794;DHT22;31160;49.500;7.772;2023-05-19T02:24:21;7.00;99.90
13794;DHT22;31160;49.500;7.772;2023-05-19T02:26:52;7.00;99.90
13794;DHT22;31160;49.500;7.772;2023-05-19T02:29:19;6.90;99.90
13794;DHT22;31160;49.500;7.772;2023-05-19T02:31:47;6.90;99.90
13794;DHT22;31160;49.500;7.772;2023-05-19T02:34:14;6.90;99.90
13794;DHT22;31160;49.500;7.772;2023-05-19T02:36:41;6.90;99.90
13794;DHT22;31160;49.500;7.772;2023-05-19T02:39:11;6.90;99.90
13794;DHT22;31160;49.500;7.772;2023-05-19T02:41:38;6.80;99.90
13794;DHT22;31160;49.500;7.772;2023-05-19T02:44:05;6.80;99.90
13794;DHT22;31160;49.500;7.772;2023-05-19T02:46:32;6.80;99.90
13794;DHT22;31160;49.500;7.772;2023-05-19T02:48:59;6.80;99.90
13794;DHT22;31160;49.500;7.772;2023-05-19T02:51:26;6.80;99.90
13794;DHT22;31160;49.500;7.772;2023-05-19T02:53:53;6.80;99.90
13794;DHT22;31160;49.500;7.772;2023-05-19T02:56:20;6.70;99.90
13794;DHT22;31160;49.500;7.772;2023-05-19T02:58:47;6.70;99.90
13794;DHT22;31160;49.500;7.772;2023-05-19T03:01:14;6.70;99.90
13794;DHT22;31160;49.500;7.772;2023-05-19T03:03:42;6.70;99.90
13794;DHT22;31160;49.500;7.772;2023-05-19T03:06:08;6.70;99.90
13794;DHT22;31160;49.500;7.772;2023-05-19T03:08:35;6.60;99.90
13794;DHT22;31160;49.500;7.772;2023-05-19T03:11:02;6.60;99.90
13794;DHT22;31160;49.500;7.772;2023-05-19T03:13:29;6.60;99.90
13794;DHT22;31160;49.500;7.772;2023-05-19T03:15:56;6.60;99.90
13794;DHT22;31160;49.500;7.772;2023-05-19T03:18:25;6.60;99.90
13794;DHT22;31160;49.500;7.772;2023-05-19T03:20:52;6.60;99.90
13794;DHT22;31160;49.500;7.772;2023-05-19T03:23:20;6.60;99.90
13794;DHT22;31160;49.500;7.772;2023-05-19T03:25:47;6.60;99.90
13794;DHT22;31160;49.500;7.772;2023-05-19T03:28:14;6.60;99.90
13794;DHT22;31160;49.500;7.772;2023-05-19T03:30:42;6.60;99.90
13794;DHT22;31160;49.500;7.772;2023-05-19T03:33:13;6.60;99.90
13794;DHT22;31160;49.500;7.772;2023-05-19T03:35:40;6.60;99.90
13794;DHT22;31160;49.500;7.772;2023-05-19T03:38:07;6.50;99.90
13794;DHT22;31160;49.500;7.772;2023-05-19T03:40:34;6.50;99.90
13794;DHT22;31160;49.500;7.772;2023-05-19T03:43:04;6.50;99.90
13794;DHT22;31160;49.500;7.772;2023-05-19T03:45:36;6.50;99.90
13794;DHT22;31160;49.500;7.772;2023-05-19T03:48:17;6.40;99.90
13794;DHT22;31160;49.500;7.772;2023-05-19T03:51:05;6.40;99.90
13794;DHT22;31160;49.500;7.772;2023-05-19T03:53:32;6.40;99.90
13794;DHT22;31160;49.500;7.772;2023-05-19T03:55:59;6.40;99.90
13794;DHT22;31160;49.500;7.772;2023-05-19T03:58:26;6.40;99.90
13794;DHT22;31160;49.500;7.772;2023-05-19T04:00:55;6.40;99.90
13794;DHT22;31160;49.500;7.772;2023-05-19T04:03:22;6.40;99.90
13794;DHT22;31160;49.500;7.772;2023-05-19T04:05:49;6.40;99.90
13794;DHT22;31160;49.500;7.772;2023-05-19T04:08:17;6.40;99.90
13794;DHT22;31160;49.500;7.772;2023-05-19T04:10:43;6.40;99.90
13794;DHT22;31160;49.500;7.772;2023-05-19T04:13:10;6.40;99.90
13794;DHT22;31160;49.500;7.772;2023-05-19T04:15:37;6.40;99.90
13794;DHT22;31160;49.500;7.772;2023-05-19T04:18:04;6.50;99.90
13794;DHT22;31160;49.500;7.772;2023-05-19T04:20:31;6.60;99.90
13794;DHT22;31160;49.500;7.772;2023-05-19T04:22:58;6.60;99.90
13794;DHT22;31160;49.500;7.772;2023-05-19T04:25:25;6.70;99.90
13794;DHT22;31160;49.500;7.772;2023-05-19T04:27:53;6.80;99.90
13794;DHT22;31160;49.500;7.772;2023-05-19T04:30:23;6.90;99.90
13794;DHT22;31160;49.500;7.772;2023-05-19T04:32:50;7.00;99.90
13794;DHT22;31160;49.500;7.772;2023-05-19T04:35:19;7.00;99.90
13794;DHT22;31160;49.500;7.772;2023-05-19T04:37:47;7.10;99.90
13794;DHT22;31160;49.500;7.772;2023-05-19T04:40:17;7.20;99.90
13794;DHT22;31160;49.500;7.772;2023-05-19T04:42:46;7.30;99.90
13794;DHT22;31160;49.500;7.772;2023-05-19T04:45:15;7.40;99.90
13794;DHT22;31160;49.500;7.772;2023-05-19T04:47:44;7.40;99.90
13794;DHT22;31160;49.500;7.772;2023-05-19T04:50:13;7.50;99.90
13794;DHT22;31160;49.500;7.772;2023-05-19T04:52:41;7.50;99.90
13794;DHT22;31160;49.500;7.772;2023-05-19T04:55:11;7.60;99.90
13794;DHT22;31160;49.500;7.772;2023-05-19T04:57:40;7.70;99.90
13794;DHT22;31160;49.500;7.772;2023-05-19T05:00:07;7.70;99.90
13794;DHT22;31160;49.500;7.772;2023-05-19T05:02:49;7.70;99.90
13794;DHT22;31160;49.500;7.772;2023-05-19T05:05:19;7.70;99.90
13794;DHT22;31160;49.500;7.772;2023-05-19T05:07:46;7.70;99.90
13794;DHT22;31160;49.500;7.772;2023-05-19T05:10:13;7.80;99.90
13794;DHT22;31160;49.500;7.772;2023-05-19T05:12:41;7.90;99.90
13794;DHT22;31160;49.500;7.772;2023-05-19T05:15:09;8.00;99.90
13794;DHT22;31160;49.500;7.772;2023-05-19T05:17:36;8.10;99.90
13794;DHT22;31160;49.500;7.772;2023-05-19T05:20:04;8.20;99.90
13794;DHT22;31160;49.500;7.772;2023-05-19T05:22:32;8.50;99.90
13794;DHT22;31160;49.500;7.772;2023-05-19T05:25:00;10.20;99.90
13794;DHT22;31160;49.500;7.772;2023-05-19T05:27:27;12.80;99.90
13794;DHT22;31160;49.500;7.772;2023-05-19T05:29:54;14.90;99.90
13794;DHT22;31160;49.500;7.772;2023-05-19T05:32:25;15.30;98.90
13794;DHT22;31160;49.500;7.772;2023-05-19T05:34:52;15.90;97.70
13794;DHT22;31160;49.500;7.772;2023-05-19T05:37:19;15.80;97.20
13794;DHT22;31160;49.500;7.772;2023-05-19T05:39:46;15.80;97.40
13794;DHT22;31160;49.500;7.772;2023-05-19T05:42:12;15.90;97.40
13794;DHT22;31160;49.500;7.772;2023-05-19T05:44:39;15.50;97.50
13794;DHT22;31160;49.500;7.772;2023-05-19T05:47:07;15.60;97.20
13794;DHT22;31160;49.500;7.772;2023-05-19T05:49:34;15.70;97.20
13794;DHT22;31160;49.500;7.772;2023-05-19T05:52:04;16.30;96.70
13794;DHT22;31160;49.500;7.772;2023-05-19T05:54:39;16.60;96.40
13794;DHT22;31160;49.500;7.772;2023-05-19T05:57:07;16.50;96.50
13794;DHT22;31160;49.500;7.772;2023-05-19T05:59:34;16.90;96.40
13794;DHT22;31160;49.500;7.772;2023-05-19T06:02:01;15.60;97.30
13794;DHT22;31160;49.500;7.772;2023-05-19T06:04:28;15.00;98.40
13794;DHT22;31160;49.500;7.772;2023-05-19T06:06:55;14.80;99.30
13794;DHT22;31160;49.500;7.772;2023-05-19T06:09:30;14.20;99.90
13794;DHT22;31160;49.500;7.772;2023-05-19T06:11:57;14.30;99.90
13794;DHT22;31160;49.500;7.772;2023-05-19T06:14:29;13.60;99.90
13794;DHT22;31160;49.500;7.772;2023-05-19T06:17:22;13.20;99.90
13794;DHT22;31160;49.500;7.772;2023-05-19T06:19:50;13.20;99.90
13794;DHT22;31160;49.500;7.772;2023-05-19T06:22:17;13.20;99.90
13794;DHT22;31160;49.500;7.772;2023-05-19T06:24:44;12.50;99.90
13794;DHT22;31160;49.500;7.772;2023-05-19T06:27:11;12.60;99.90
13794;DHT22;31160;49.500;7.772;2023-05-19T06:29:37;12.70;99.90
13794;DHT22;31160;49.500;7.772;2023-05-19T06:32:06;12.60;99.90
13794;DHT22;31160;49.500;7.772;2023-05-19T06:34:34;12.60;99.90
13794;DHT22;31160;49.500;7.772;2023-05-19T06:37:01;12.60;99.90
13794;DHT22;31160;49.500;7.772;2023-05-19T06:39:30;12.80;99.90
13794;DHT22;31160;49.500;7.772;2023-05-19T06:41:56;12.90;99.90
13794;DHT22;31160;49.500;7.772;2023-05-19T06:44:43;12.80;99.90
13794;DHT22;31160;49.500;7.772;2023-05-19T06:47:11;12.70;99.90
13794;DHT22;31160;49.500;7.772;2023-05-19T06:49:38;12.60;99.90
13794;DHT22;31160;49.500;7.772;2023-05-19T06:52:05;12.70;99.90
13794;DHT22;31160;49.500;7.772;2023-05-19T06:54:32;13.00;99.90
13794;DHT22;31160;49.500;7.772;2023-05-19T06:57:01;13.00;99.70
13794;DHT22;31160;49.500;7.772;2023-05-19T06:59:29;13.20;99.60
13794;DHT22;31160;49.500;7.772;2023-05-19T07:01:57;13.30;99.70
13794;DHT22;31160;49.500;7.772;2023-05-19T07:04:24;13.40;99.10
13794;DHT22;31160;49.500;7.772;2023-05-19T07:06:51;13.60;99.00
13794;DHT22;31160;49.500;7.772;2023-05-19T07:09:18;13.30;99.10
13794;DHT22;31160;49.500;7.772;2023-05-19T07:11:46;13.50;99.30
13794;DHT22;31160;49.500;7.772;2023-05-19T07:14:13;13.10;99.60
13794;DHT22;31160;49.500;7.772;2023-05-19T07:16:40;13.30;99.40
13794;DHT22;31160;49.500;7.772;2023-05-19T07:19:07;13.70;99.40
13794;DHT22;31160;49.500;7.772;2023-05-19T07:21:33;14.10;98.60
13794;DHT22;31160;49.500;7.772;2023-05-19T07:24:00;14.50;98.20
13794;DHT22;31160;49.500;7.772;2023-05-19T07:26:28;15.00;97.40
13794;DHT22;31160;49.500;7.772;2023-05-19T07:28:54;15.20;97.20
13794;DHT22;31160;49.500;7.772;2023-05-19T07:31:22;15.50;96.40
13794;DHT22;31160;49.500;7.772;2023-05-19T07:33:49;15.20;96.20
13794;DHT22;31160;49.500;7.772;2023-05-19T07:36:19;15.10;96.10
13794;DHT22;31160;49.500;7.772;2023-05-19T07:38:46;14.90;96.00
13794;DHT22;31160;49.500;7.772;2023-05-19T07:41:13;15.00;96.70
13794;DHT22;31160;49.500;7.772;2023-05-19T07:43:40;14.60;96.30
13794;DHT22;31160;49.500;7.772;2023-05-19T07:46:07;14.60;96.60
13794;DHT22;31160;49.500;7.772;2023-05-19T07:48:33;14.80;96.70
13794;DHT22;31160;49.500;7.772;2023-05-19T07:51:01;15.10;96.50
13794;DHT22;31160;49.500;7.772;2023-05-19T07:53:27;15.10;96.30
13794;DHT22;31160;49.500;7.772;2023-05-19T07:55:54;15.20;96.70
13794;DHT22;31160;49.500;7.772;2023-05-19T07:58:25;14.90;96.50
13794;DHT22;31160;49.500;7.772;2023-05-19T08:00:52;14.90;96.80
13794;DHT22;31160;49.500;7.772;2023-05-19T08:03:19;14.80;96.90
13794;DHT22;31160;49.500;7.772;2023-05-19T08:05:46;14.40;97.70
13794;DHT22;31160;49.500;7.772;2023-05-19T08:08:14;14.60;97.80
13794;DHT22;31160;49.500;7.772;2023-05-19T08:10:42;14.70;97.20
13794;DHT22;31160;49.500;7.772;2023-05-19T08:13:09;14.70;97.20
13794;DHT22;31160;49.500;7.772;2023-05-19T08:15:36;14.20;98.10
13794;DHT22;31160;49.500;7.772;2023-05-19T08:18:03;14.60;98.10
13794;DHT22;31160;49.500;7.772;2023-05-19T08:20:31;14.90;97.50
13794;DHT22;31160;49.500;7.772;2023-05-19T08:22:58;15.00;96.90
13794;DHT22;31160;49.500;7.772;2023-05-19T08:25:25;15.00;97.10
13794;DHT22;31160;49.500;7.772;2023-05-19T08:27:52;14.60;97.40
13794;DHT22;31160;49.500;7.772;2023-05-19T08:30:19;14.80;97.50
13794;DHT22;31160;49.500;7.772;2023-05-19T08:32:47;14.90;97.50
13794;DHT22;31160;49.500;7.772;2023-05-19T08:35:14;14.80;97.10
13794;DHT22;31160;49.500;7.772;2023-05-19T08:37:41;14.70;97.90
13794;DHT22;31160;49.500;7.772;2023-05-19T08:40:14;14.80;97.70
13794;DHT22;31160;49.500;7.772;2023-05-19T08:42:42;15.10;97.70
13794;DHT22;31160;49.500;7.772;2023-05-19T08:45:09;15.00;97.30
13794;DHT22;31160;49.500;7.772;2023-05-19T08:47:36;15.00;97.20
13794;DHT22;31160;49.500;7.772;2023-05-19T08:50:05;15.20;97.20
13794;DHT22;31160;49.500;7.772;2023-05-19T08:52:55;15.00;96.90
13794;DHT22;31160;49.500;7.772;2023-05-19T08:58:26;15.00;97.70
13794;DHT22;31160;49.500;7.772;2023-05-19T09:00:55;15.00;97.60
13794;DHT22;31160;49.500;7.772;2023-05-19T09:03:23;15.30;97.00
13794;DHT22;31160;49.500;7.772;2023-05-19T09:05:52;15.20;96.80
13794;DHT22;31160;49.500;7.772;2023-05-19T09:08:19;15.30;97.30
13794;DHT22;31160;49.500;7.772;2023-05-19T09:10:46;15.50;97.10
13794;DHT22;31160;49.500;7.772;2023-05-19T09:13:13;15.70;96.90
13794;DHT22;31160;49.500;7.772;2023-05-19T09:15:39;15.90;96.50
13794;DHT22;31160;49.500;7.772;2023-05-19T09:18:12;15.70;95.70
13794;DHT22;31160;49.500;7.772;2023-05-19T09:20:41;15.50;95.90
13794;DHT22;31160;49.500;7.772;2023-05-19T09:23:12;15.70;95.50
13794;DHT22;31160;49.500;7.772;2023-05-19T09:25:50;15.80;95.50
13794;DHT22;31160;49.500;7.772;2023-05-19T09:28:28;15.70;95.20
13794;DHT22;31160;49.500;7.772;2023-05-19T09:31:04;15.70;95.00
13794;DHT22;31160;49.500;7.772;2023-05-19T09:33:33;15.50;95.50
13794;DHT22;31160;49.500;7.772;2023-05-19T09:36:01;15.60;95.80
13794;DHT22;31160;49.500;7.772;2023-05-19T09:38:28;15.70;95.30
13794;DHT22;31160;49.500;7.772;2023-05-19T09:40:56;15.70;95.10
13794;DHT22;31160;49.500;7.772;2023-05-19T09:43:29;15.70;94.90
13794;DHT22;31160;49.500;7.772;2023-05-19T09:46:07;15.60;94.30
13794;DHT22;31160;49.500;7.772;2023-05-19T09:48:37;15.70;94.80
13794;DHT22;31160;49.500;7.772;2023-05-19T09:51:07;15.70;94.30
13794;DHT22;31160;49.500;7.772;2023-05-19T09:53:36;15.90;94.00
13794;DHT22;31160;49.500;7.772;2023-05-19T09:56:04;15.90;93.80
13794;DHT22;31160;49.500;7.772;2023-05-19T09:58:32;15.80;94.00
13794;DHT22;31160;49.500;7.772;2023-05-19T10:01:02;15.90;93.70
13794;DHT22;31160;49.500;7.772;2023-05-19T10:03:30;16.00;94.10
13794;DHT22;31160;49.500;7.772;2023-05-19T10:06:00;16.10;93.80
13794;DHT22;31160;49.500;7.772;2023-05-19T10:08:28;16.10;92.90
13794;DHT22;31160;49.500;7.772;2023-05-19T10:10:56;16.00;94.10
13794;DHT22;31160;49.500;7.772;2023-05-19T10:13:24;15.90;92.20
13794;DHT22;31160;49.500;7.772;2023-05-19T10:15:52;16.10;92.60
13794;DHT22;31160;49.500;7.772;2023-05-19T10:18:25;16.10;92.30
13794;DHT22;31160;49.500;7.772;2023-05-19T10:20:55;16.00;92.40
13794;DHT22;31160;49.500;7.772;2023-05-19T10:23:23;16.20;92.30
13794;DHT22;31160;49.500;7.772;2023-05-19T10:25:51;16.50;92.50
13794;DHT22;31160;49.500;7.772;2023-05-19T10:28:21;16.40;91.80
13794;DHT22;31160;49.500;7.772;2023-05-19T10:30:55;16.40;91.80
13794;DHT22;31160;49.500;7.772;2023-05-19T10:33:35;16.40;91.60
13794;DHT22;31160;49.500;7.772;2023-05-19T10:39:05;16.60;90.30
13794;DHT22;31160;49.500;7.772;2023-05-19T10:41:59;16.70;90.70
13794;DHT22;31160;49.500;7.772;2023-05-19T10:47:24;16.60;90.90
13794;DHT22;31160;49.500;7.772;2023-05-19T10:49:54;16.70;90.90
13794;DHT22;31160;49.500;7.772;2023-05-19T10:52:22;16.80;90.90
13794;DHT22;31160;49.500;7.772;2023-05-19T10:54:55;17.00;90.60
13794;DHT22;31160;49.500;7.772;2023-05-19T10:57:27;16.90;91.00
13794;DHT22;31160;49.500;7.772;2023-05-19T10:59:56;17.00;91.80
13794;DHT22;31160;49.500;7.772;2023-05-19T11:02:37;16.90;90.80
13794;DHT22;31160;49.500;7.772;2023-05-19T11:05:13;16.90;90.90
13794;DHT22;31160;49.500;7.772;2023-05-19T11:07:41;16.70;90.60
13794;DHT22;31160;49.500;7.772;2023-05-19T11:10:10;16.90;91.50
13794;DHT22;31160;49.500;7.772;2023-05-19T11:12:44;16.90;91.40
13794;DHT22;31160;49.500;7.772;2023-05-19T11:15:14;16.80;90.80
13794;DHT22;31160;49.500;7.772;2023-05-19T11:17:47;16.80;91.20
13794;DHT22;31160;49.500;7.772;2023-05-19T11:20:26;17.00;91.50
13794;DHT22;31160;49.500;7.772;2023-05-19T11:23:14;16.80;91.30
13794;DHT22;31160;49.500;7.772;2023-05-19T11:25:51;16.80;91.50
13794;DHT22;31160;49.500;7.772;2023-05-19T11:28:22;16.70;91.90
13794;DHT22;31160;49.500;7.772;2023-05-19T11:30:54;16.90;91.60
13794;DHT22;31160;49.500;7.772;2023-05-19T11:33:24;17.10;91.60
13794;DHT22;31160;49.500;7.772;2023-05-19T11:35:56;17.50;91.50
13794;DHT22;31160;49.500;7.772;2023-05-19T11:38:27;17.40;90.90
13794;DHT22;31160;49.500;7.772;2023-05-19T11:40:55;17.40;90.90
13794;DHT22;31160;49.500;7.772;2023-05-19T11:43:23;17.90;91.30
13794;DHT22;31160;49.500;7.772;2023-05-19T11:45:50;17.90;90.60
13794;DHT22;31160;49.500;7.772;2023-05-19T11:48:20;17.70;90.50
13794;DHT22;31160;49.500;7.772;2023-05-19T11:50:47;17.50;90.70
13794;DHT22;31160;49.500;7.772;2023-05-19T11:53:14;17.70;89.80
13794;DHT22;31160;49.500;7.772;2023-05-19T11:55:46;17.40;90.30
13794;DHT22;31160;49.500;7.772;2023-05-19T11:58:14;17.60;90.10
13794;DHT22;31160;49.500;7.772;2023-05-19T12:00:42;18.40;89.60
13794;DHT22;31160;49.500;7.772;2023-05-19T12:03:11;18.80;88.60
13794;DHT22;31160;49.500;7.772;2023-05-19T12:05:42;18.50;86.90
13794;DHT22;31160;49.500;7.772;2023-05-19T12:08:11;18.40;87.20
13794;DHT22;31160;49.500;7.772;2023-05-19T12:10:39;18.40;87.40
13794;DHT22;31160;49.500;7.772;2023-05-19T12:13:06;18.80;87.40
13794;DHT22;31160;49.500;7.772;2023-05-19T12:15:35;18.80;86.20
13794;DHT22;31160;49.500;7.772;2023-05-19T12:18:02;19.00;85.90
13794;DHT22;31160;49.500;7.772;2023-05-19T12:20:29;18.90;86.10
13794;DHT22;31160;49.500;7.772;2023-05-19T12:22:59;18.70;86.10
13794;DHT22;31160;49.500;7.772;2023-05-19T12:25:28;18.70;87.70
13794;DHT22;31160;49.500;7.772;2023-05-19T12:27:59;18.60;86.40
13794;DHT22;31160;49.500;7.772;2023-05-19T12:30:26;18.80;86.20
13794;DHT22;31160;49.500;7.772;2023-05-19T12:32:57;18.30;85.70
13794;DHT22;31160;49.500;7.772;2023-05-19T12:35:30;18.30;87.50
13794;DHT22;31160;49.500;7.772;2023-05-19T12:38:05;18.20;87.40
13794;DHT22;31160;49.500;7.772;2023-05-19T12:40:36;18.00;87.00
13794;DHT22;31160;49.500;7.772;2023-05-19T12:43:06;17.90;88.00
13794;DHT22;31160;49.500;7.772;2023-05-19T12:45:34;18.40;87.80
13794;DHT22;31160;49.500;7.772;2023-05-19T12:48:24;18.50;86.90
13794;DHT22;31160;49.500;7.772;2023-05-19T12:50:51;18.30;86.70
13794;DHT22;31160;49.500;7.772;2023-05-19T12:53:20;18.40;87.60
13794;DHT22;31160;49.500;7.772;2023-05-19T12:55:46;18.50;88.20
13794;DHT22;31160;49.500;7.772;2023-05-19T12:58:14;19.00;87.00
13794;DHT22;31160;49.500;7.772;2023-05-19T13:00:43;18.90;87.10
13794;DHT22;31160;49.500;7.772;2023-05-19T13:03:18;19.00;85.50
13794;DHT22;31160;49.500;7.772;2023-05-19T13:05:47;19.00;86.10
13794;DHT22;31160;49.500;7.772;2023-05-19T13:08:20;19.00;86.90
13794;DHT22;31160;49.500;7.772;2023-05-19T13:10:49;19.40;85.90
13794;DHT22;31160;49.500;7.772;2023-05-19T13:13:16;19.40;84.90
13794;DHT22;31160;49.500;7.772;2023-05-19T13:15:44;19.20;85.90
13794;DHT22;31160;49.500;7.772;2023-05-19T13:18:14;19.20;85.70
13794;DHT22;31160;49.500;7.772;2023-05-19T13:20:42;19.00;85.90
13794;DHT22;31160;49.500;7.772;2023-05-19T13:23:10;18.50;85.20
13794;DHT22;31160;49.500;7.772;2023-05-19T13:25:37;18.70;84.20
13794;DHT22;31160;49.500;7.772;2023-05-19T13:28:04;18.80;85.60
13794;DHT22;31160;49.500;7.772;2023-05-19T13:30:32;19.00;84.90
13794;DHT22;31160;49.500;7.772;2023-05-19T13:33:00;19.00;85.30
13794;DHT22;31160;49.500;7.772;2023-05-19T13:35:27;19.50;85.40
13794;DHT22;31160;49.500;7.772;2023-05-19T13:37:54;19.70;84.90
13794;DHT22;31160;49.500;7.772;2023-05-19T13:40:21;19.70;85.60
13794;DHT22;31160;49.500;7.772;2023-05-19T13:42:49;19.90;84.60
13794;DHT22;31160;49.500;7.772;2023-05-19T13:45:16;19.30;85.50
13794;DHT22;31160;49.500;7.772;2023-05-19T13:47:43;19.00;85.90
13794;DHT22;31160;49.500;7.772;2023-05-19T13:50:10;18.80;86.30
13794;DHT22;31160;49.500;7.772;2023-05-19T13:52:37;18.50;86.50
13794;DHT22;31160;49.500;7.772;2023-05-19T13:55:05;18.90;87.20
13794;DHT22;31160;49.500;7.772;2023-05-19T13:57:32;18.80;87.90
13794;DHT22;31160;49.500;7.772;2023-05-19T13:59:59;19.10;88.50
13794;DHT22;31160;49.500;7.772;2023-05-19T14:02:38;19.00;86.30
13794;DHT22;31160;49.500;7.772;2023-05-19T14:05:06;19.00;86.70
13794;DHT22;31160;49.500;7.772;2023-05-19T14:07:33;18.70;87.40
13794;DHT22;31160;49.500;7.772;2023-05-19T14:10:01;18.90;88.00
13794;DHT22;31160;49.500;7.772;2023-05-19T14:12:28;18.90;88.30
13794;DHT22;31160;49.500;7.772;2023-05-19T14:15:13;19.20;87.70
13794;DHT22;31160;49.500;7.772;2023-05-19T14:17:39;19.50;87.70
13794;DHT22;31160;49.500;7.772;2023-05-19T14:20:07;19.50;88.10
13794;DHT22;31160;49.500;7.772;2023-05-19T14:22:34;19.20;87.90
13794;DHT22;31160;49.500;7.772;2023-05-19T14:25:01;19.10;88.90
13794;DHT22;31160;49.500;7.772;2023-05-19T14:27:28;18.80;89.10
13794;DHT22;31160;49.500;7.772;2023-05-19T14:29:54;18.80;89.60
13794;DHT22;31160;49.500;7.772;2023-05-19T14:32:21;19.10;89.20
13794;DHT22;31160;49.500;7.772;2023-05-19T14:34:48;19.40;88.80
13794;DHT22;31160;49.500;7.772;2023-05-19T14:37:19;19.50;89.20
13794;DHT22;31160;49.500;7.772;2023-05-19T14:39:45;19.60;88.30
13794;DHT22;31160;49.500;7.772;2023-05-19T14:42:12;19.50;87.70
13794;DHT22;31160;49.500;7.772;2023-05-19T14:44:39;19.50;87.90
13794;DHT22;31160;49.500;7.772;2023-05-19T14:47:06;19.50;88.00
13794;DHT22;31160;49.500;7.772;2023-05-19T14:49:33;19.50;86.90
13794;DHT22;31160;49.500;7.772;2023-05-19T14:52:00;19.20;87.30
13794;DHT22;31160;49.500;7.772;2023-05-19T14:54:26;19.00;88.10
13794;DHT22;31160;49.500;7.772;2023-05-19T14:56:53;18.70;88.90
13794;DHT22;31160;49.500;7.772;2023-05-19T14:59:20;18.60;89.60
13794;DHT22;31160;49.500;7.772;2023-05-19T15:01:47;18.80;90.00
13794;DHT22;31160;49.500;7.772;2023-05-19T15:04:14;18.90;89.60
13794;DHT22;31160;49.500;7.772;2023-05-19T15:06:41;18.90;90.00
13794;DHT22;31160;49.500;7.772;2023-05-19T15:09:07;18.90;89.60
13794;DHT22;31160;49.500;7.772;2023-05-19T15:11:34;18.50;89.60
13794;DHT22;31160;49.500;7.772;2023-05-19T15:14:01;18.30;90.00
13794;DHT22;31160;49.500;7.772;2023-05-19T15:16:28;18.30;90.40
13794;DHT22;31160;49.500;7.772;2023-05-19T15:18:55;18.40;90.30
13794;DHT22;31160;49.500;7.772;2023-05-19T15:21:22;18.40;90.50
13794;DHT22;31160;49.500;7.772;2023-05-19T15:23:49;18.30;90.60
13794;DHT22;31160;49.500;7.772;2023-05-19T15:26:16;18.30;90.70
13794;DHT22;31160;49.500;7.772;2023-05-19T15:28:43;18.30;90.70
13794;DHT22;31160;49.500;7.772;2023-05-19T15:31:10;18.20;90.90
13794;DHT22;31160;49.500;7.772;2023-05-19T15:33:36;18.10;90.90
13794;DHT22;31160;49.500;7.772;2023-05-19T15:36:03;18.20;90.60
13794;DHT22;31160;49.500;7.772;2023-05-19T15:38:34;18.10;90.90
13794;DHT22;31160;49.500;7.772;2023-05-19T15:41:05;18.00;91.20
13794;DHT22;31160;49.500;7.772;2023-05-19T15:43:33;18.10;90.90
13794;DHT22;31160;49.500;7.772;2023-05-19T15:46:00;18.10;91.00
13794;DHT22;31160;49.500;7.772;2023-05-19T15:48:27;18.10;91.20
13794;DHT22;31160;49.500;7.772;2023-05-19T15:50:54;18.10;90.90
13794;DHT22;31160;49.500;7.772;2023-05-19T15:53:24;18.20;91.00
13794;DHT22;31160;49.500;7.772;2023-05-19T15:55:51;18.20;91.00
13794;DHT22;31160;49.500;7.772;2023-05-19T15:58:17;18.20;91.00
13794;DHT22;31160;49.500;7.772;2023-05-19T16:00:44;18.30;91.00
13794;DHT22;31160;49.500;7.772;2023-05-19T16:03:11;18.50;90.70
13794;DHT22;31160;49.500;7.772;2023-05-19T16:05:38;18.30;90.70
13794;DHT22;31160;49.500;7.772;2023-05-19T16:08:05;18.40;91.10
13794;DHT22;31160;49.500;7.772;2023-05-19T16:10:34;18.30;91.40